sensor_id;sensor_type;location;lat;lon;timestamp;temperature;humidity
3067;DHT22;1544;48.834;9.194;2022-10-16T00:01:45;17.60;65.30
3067;DHT22;1544;48.834;9.194;2022-10-16T00:04:20;17.60;65.30
3067;DHT22;1544;48.834;9.194;2022-10-16T00:06:55;17.60;65.00
3067;DHT22;1544;48.834;9.194;2022-10-16T00:09:30;17.60;64.80
3067;DHT22;1544;48.834;9.194;2022-10-16T00:12:06;17.70;64.60
3067;DHT22;1544;48.834;9.194;2022-10-16T00:14:42;17.70;64.40
3067;DHT22;1544;48.834;9.194;2022-10-16T00:17:18;17.70;64.20
3067;DHT22;1544;48.834;9.194;2022-10-16T00:19:53;17.70;63.90
3067;DHT22;1544;48.834;9.194;2022-10-16T00:22:28;17.70;63.60
3067;DHT22;1544;48.834;9.194;2022-10-16T00:25:04;17.70;63.70
3067;DHT22;1544;48.834;9.194;2022-10-16T00:27:39;17.60;63.30
3067;DHT22;1544;48.834;9.194;2022-10-16T00:30:14;17.60;63.50
3067;DHT22;1544;48.834;9.194;2022-10-16T00:32:49;17.70;63.60
3067;DHT22;1544;48.834;9.194;2022-10-16T00:35:24;17.60;63.60
3067;DHT22;1544;48.834;9.194;2022-10-16T00:37:59;17.60;63.70
3067;DHT22;1544;48.834;9.194;2022-10-16T00:40:34;17.60;63.80
3067;DHT22;1544;48.834;9.194;2022-10-16T00:43:46;17.60;64.10
3067;DHT22;1544;48.834;9.194;2022-10-16T00:46:37;17.50;64.20
3067;DHT22;1544;48.834;9.194;2022-10-16T00:49:18;17.50;64.40
3067;DHT22;1544;48.834;9.194;2022-10-16T00:51:54;17.50;64.50
3067;DHT22;1544;48.834;9.194;2022-10-16T00:54:32;17.50;64.20
3067;DHT22;1544;48.834;9.194;2022-10-16T00:57:07;17.50;64.20
3067;DHT22;1544;48.834;9.194;2022-10-16T00:59:42;17.50;64.50
3067;DHT22;1544;48.834;9.194;2022-10-16T01:02:17;17.50;64.70
3067;DHT22;1544;48.834;9.194;2022-10-16T01:04:53;17.50;64.70
3067;DHT22;1544;48.834;9.194;2022-10-16T01:07:58;17.40;65.00
3067;DHT22;1544;48.834;9.194;2022-10-16T01:10:59;17.50;65.20
3067;DHT22;1544;48.834;9.194;2022-10-16T01:13:57;17.50;65.40
3067;DHT22;1544;48.834;9.194;2022-10-16T01:16:34;17.50;65.40
3067;DHT22;1544;48.834;9.194;2022-10-16T01:28:54;17.50;66.30
3067;DHT22;1544;48.834;9.194;2022-10-16T01:31:32;17.50;66.30
3067;DHT22;1544;48.834;9.194;2022-10-16T01:34:18;17.50;66.50
3067;DHT22;1544;48.834;9.194;2022-10-16T01:37:02;17.40;66.80
3067;DHT22;1544;48.834;9.194;2022-10-16T01:39:42;17.40;66.90
3067;DHT22;1544;48.834;9.194;2022-10-16T01:42:23;17.50;66.90
3067;DHT22;1544;48.834;9.194;2022-10-16T01:45:00;17.40;66.80
3067;DHT22;1544;48.834;9.194;2022-10-16T01:47:36;17.50;66.80
3067;DHT22;1544;48.834;9.194;2022-10-16T01:50:14;17.50;66.80
3067;DHT22;1544;48.834;9.194;2022-10-16T01:52:52;17.50;66.80
3067;DHT22;1544;48.834;9.194;2022-10-16T01:55:31;17.40;66.80
3067;DHT22;1544;48.834;9.194;2022-10-16T01:58:10;17.40;67.00
3067;DHT22;1544;48.834;9.194;2022-10-16T02:00:47;17.40;67.20
3067;DHT22;1544;48.834;9.194;2022-10-16T02:03:23;17.40;67.10
3067;DHT22;1544;48.834;9.194;2022-10-16T02:05:58;17.40;67.30
3067;DHT22;1544;48.834;9.194;2022-10-16T02:08:34;17.50;67.30
3067;DHT22;1544;48.834;9.194;2022-10-16T02:11:10;17.40;67.70
3067;DHT22;1544;48.834;9.194;2022-10-16T02:13:59;17.40;67.90
3067;DHT22;1544;48.834;9.194;2022-10-16T02:16:40;17.40;68.20
3067;DHT22;1544;48.834;9.194;2022-10-16T02:19:19;17.40;68.30
3067;DHT22;1544;48.834;9.194;2022-10-16T02:22:03;17.40;69.20
3067;DHT22;1544;48.834;9.194;2022-10-16T02:25:01;17.40;69.10
3067;DHT22;1544;48.834;9.194;2022-10-16T02:27:49;17.30;69.50
3067;DHT22;1544;48.834;9.194;2022-10-16T02:33:19;17.40;70.20
3067;DHT22;1544;48.834;9.194;2022-10-16T02:35:57;17.30;70.00
3067;DHT22;1544;48.834;9.194;2022-10-16T02:38:32;17.30;70.10
3067;DHT22;1544;48.834;9.194;2022-10-16T02:41:08;17.30;70.00
3067;DHT22;1544;48.834;9.194;2022-10-16T02:43:43;17.30;70.10
3067;DHT22;1544;48.834;9.194;2022-10-16T02:46:18;17.30;70.30
3067;DHT22;1544;48.834;9.194;2022-10-16T02:48:53;17.30;70.50
3067;DHT22;1544;48.834;9.194;2022-10-16T02:51:28;17.30;70.70
3067;DHT22;1544;48.834;9.194;2022-10-16T02:54:04;17.30;70.70
3067;DHT22;1544;48.834;9.194;2022-10-16T02:56:39;17.30;71.10
3067;DHT22;1544;48.834;9.194;2022-10-16T02:59:14;17.30;71.20
3067;DHT22;1544;48.834;9.194;2022-10-16T03:01:49;17.30;71.30
3067;DHT22;1544;48.834;9.194;2022-10-16T03:04:23;17.30;71.40
3067;DHT22;1544;48.834;9.194;2022-10-16T03:06:59;17.30;71.50
3067;DHT22;1544;48.834;9.194;2022-10-16T03:09:34;17.20;71.40
3067;DHT22;1544;48.834;9.194;2022-10-16T03:12:09;17.20;71.50
3067;DHT22;1544;48.834;9.194;2022-10-16T03:14:44;17.20;71.70
3067;DHT22;1544;48.834;9.194;2022-10-16T03:17:19;17.20;71.90
3067;DHT22;1544;48.834;9.194;2022-10-16T03:19:54;17.20;72.10
3067;DHT22;1544;48.834;9.194;2022-10-16T03:22:29;17.10;72.10
3067;DHT22;1544;48.834;9.194;2022-10-16T03:25:04;17.10;72.30
3067;DHT22;1544;48.834;9.194;2022-10-16T03:27:39;17.10;72.40
3067;DHT22;1544;48.834;9.194;2022-10-16T03:30:14;17.10;72.40
3067;DHT22;1544;48.834;9.194;2022-10-16T03:32:50;17.10;72.60
3067;DHT22;1544;48.834;9.194;2022-10-16T03:35:28;17.00;72.80
3067;DHT22;1544;48.834;9.194;2022-10-16T03:38:04;17.00;72.90
3067;DHT22;1544;48.834;9.194;2022-10-16T03:40:39;17.00;73.10
3067;DHT22;1544;48.834;9.194;2022-10-16T03:43:14;17.00;73.20
3067;DHT22;1544;48.834;9.194;2022-10-16T03:45:54;17.00;73.50
3067;DHT22;1544;48.834;9.194;2022-10-16T03:48:29;17.00;73.90
3067;DHT22;1544;48.834;9.194;2022-10-16T03:51:04;16.90;73.90
3067;DHT22;1544;48.834;9.194;2022-10-16T03:53:39;16.90;74.10
3067;DHT22;1544;48.834;9.194;2022-10-16T03:56:14;16.90;74.30
3067;DHT22;1544;48.834;9.194;2022-10-16T03:58:49;16.90;74.60
3067;DHT22;1544;48.834;9.194;2022-10-16T04:01:24;16.90;75.00
3067;DHT22;1544;48.834;9.194;2022-10-16T04:03:59;16.80;75.40
3067;DHT22;1544;48.834;9.194;2022-10-16T04:06:34;16.80;75.80
3067;DHT22;1544;48.834;9.194;2022-10-16T04:09:09;16.80;76.30
3067;DHT22;1544;48.834;9.194;2022-10-16T04:11:44;16.80;75.80
3067;DHT22;1544;48.834;9.194;2022-10-16T04:14:19;16.80;76.00
3067;DHT22;1544;48.834;9.194;2022-10-16T04:16:54;16.80;76.20
3067;DHT22;1544;48.834;9.194;2022-10-16T04:19:29;16.80;76.30
3067;DHT22;1544;48.834;9.194;2022-10-16T04:22:04;16.70;76.10
3067;DHT22;1544;48.834;9.194;2022-10-16T04:24:39;16.70;76.10
3067;DHT22;1544;48.834;9.194;2022-10-16T04:27:14;16.70;76.20
3067;DHT22;1544;48.834;9.194;2022-10-16T04:29:49;16.70;76.60
3067;DHT22;1544;48.834;9.194;2022-10-16T04:32:24;16.70;76.70
3067;DHT22;1544;48.834;9.194;2022-10-16T04:35:00;16.70;77.00
3067;DHT22;1544;48.834;9.194;2022-10-16T04:37:35;16.60;77.10
3067;DHT22;1544;48.834;9.194;2022-10-16T04:40:10;16.70;77.30
3067;DHT22;1544;48.834;9.194;2022-10-16T04:42:45;16.60;77.20
3067;DHT22;1544;48.834;9.194;2022-10-16T04:45:20;16.60;77.50
3067;DHT22;1544;48.834;9.194;2022-10-16T04:47:57;16.60;77.60
3067;DHT22;1544;48.834;9.194;2022-10-16T04:50:33;16.60;78.00
3067;DHT22;1544;48.834;9.194;2022-10-16T04:53:13;16.60;77.90
3067;DHT22;1544;48.834;9.194;2022-10-16T04:55:49;16.60;77.90
3067;DHT22;1544;48.834;9.194;2022-10-16T04:58:25;16.60;77.80
3067;DHT22;1544;48.834;9.194;2022-10-16T05:01:00;16.60;77.80
3067;DHT22;1544;48.834;9.194;2022-10-16T05:03:35;16.60;77.90
3067;DHT22;1544;48.834;9.194;2022-10-16T05:06:10;16.60;77.80
3067;DHT22;1544;48.834;9.194;2022-10-16T05:08:45;16.60;78.30
3067;DHT22;1544;48.834;9.194;2022-10-16T05:11:20;16.60;77.80
3067;DHT22;1544;48.834;9.194;2022-10-16T05:13:55;16.60;77.80
3067;DHT22;1544;48.834;9.194;2022-10-16T05:16:30;16.60;77.80
3067;DHT22;1544;48.834;9.194;2022-10-16T05:19:05;16.60;77.80
3067;DHT22;1544;48.834;9.194;2022-10-16T05:22:00;16.60;77.70
3067;DHT22;1544;48.834;9.194;2022-10-16T05:24:35;16.60;77.60
3067;DHT22;1544;48.834;9.194;2022-10-16T05:27:10;16.60;77.60
3067;DHT22;1544;48.834;9.194;2022-10-16T05:29:53;16.60;77.50
3067;DHT22;1544;48.834;9.194;2022-10-16T05:32:28;16.60;77.50
3067;DHT22;1544;48.834;9.194;2022-10-16T05:35:03;16.60;77.60
3067;DHT22;1544;48.834;9.194;2022-10-16T05:37:43;16.60;77.60
3067;DHT22;1544;48.834;9.194;2022-10-16T05:40:19;16.60;77.60
3067;DHT22;1544;48.834;9.194;2022-10-16T05:42:57;16.50;77.60
3067;DHT22;1544;48.834;9.194;2022-10-16T05:45:32;16.50;77.80
3067;DHT22;1544;48.834;9.194;2022-10-16T05:48:06;16.50;78.00
3067;DHT22;1544;48.834;9.194;2022-10-16T05:50:41;16.50;78.20
3067;DHT22;1544;48.834;9.194;2022-10-16T05:53:16;16.50;78.70
3067;DHT22;1544;48.834;9.194;2022-10-16T05:55:52;16.50;78.80
3067;DHT22;1544;48.834;9.194;2022-10-16T05:58:30;16.50;78.60
3067;DHT22;1544;48.834;9.194;2022-10-16T06:01:11;16.50;78.60
3067;DHT22;1544;48.834;9.194;2022-10-16T06:03:53;16.50;78.60
3067;DHT22;1544;48.834;9.194;2022-10-16T06:06:28;16.50;78.70
3067;DHT22;1544;48.834;9.194;2022-10-16T06:09:04;16.50;78.70
3067;DHT22;1544;48.834;9.194;2022-10-16T06:11:39;16.50;78.60
3067;DHT22;1544;48.834;9.194;2022-10-16T06:14:14;16.50;78.50
3067;DHT22;1544;48.834;9.194;2022-10-16T06:16:49;16.60;78.60
3067;DHT22;1544;48.834;9.194;2022-10-16T06:19:24;16.60;78.50
3067;DHT22;1544;48.834;9.194;2022-10-16T06:21:59;16.60;78.40
3067;DHT22;1544;48.834;9.194;2022-10-16T06:24:34;16.60;78.50
3067;DHT22;1544;48.834;9.194;2022-10-16T06:27:09;16.60;78.60
3067;DHT22;1544;48.834;9.194;2022-10-16T06:29:45;16.60;78.60
3067;DHT22;1544;48.834;9.194;2022-10-16T06:32:20;16.60;78.60
3067;DHT22;1544;48.834;9.194;2022-10-16T06:34:56;16.70;78.60
3067;DHT22;1544;48.834;9.194;2022-10-16T06:37:31;16.70;78.70
3067;DHT22;1544;48.834;9.194;2022-10-16T06:40:06;16.70;78.90
3067;DHT22;1544;48.834;9.194;2022-10-16T06:42:41;16.70;78.70
3067;DHT22;1544;48.834;9.194;2022-10-16T06:45:16;16.70;78.30
3067;DHT22;1544;48.834;9.194;2022-10-16T06:47:51;16.70;78.50
3067;DHT22;1544;48.834;9.194;2022-10-16T06:50:26;16.80;78.70
3067;DHT22;1544;48.834;9.194;2022-10-16T06:53:01;16.90;78.60
3067;DHT22;1544;48.834;9.194;2022-10-16T06:55:36;16.90;78.00
3067;DHT22;1544;48.834;9.194;2022-10-16T06:58:11;17.00;77.70
3067;DHT22;1544;48.834;9.194;2022-10-16T07:00:46;17.00;77.40
3067;DHT22;1544;48.834;9.194;2022-10-16T07:03:22;17.10;77.30
3067;DHT22;1544;48.834;9.194;2022-10-16T07:05:57;17.20;77.20
3067;DHT22;1544;48.834;9.194;2022-10-16T07:08:38;17.30;77.30
3067;DHT22;1544;48.834;9.194;2022-10-16T07:11:16;17.40;77.10
3067;DHT22;1544;48.834;9.194;2022-10-16T07:13:53;17.50;76.60
3067;DHT22;1544;48.834;9.194;2022-10-16T07:16:32;17.60;76.00
3067;DHT22;1544;48.834;9.194;2022-10-16T07:19:08;17.70;74.50
3067;DHT22;1544;48.834;9.194;2022-10-16T07:21:43;17.70;73.70
3067;DHT22;1544;48.834;9.194;2022-10-16T07:24:18;17.70;73.20
3067;DHT22;1544;48.834;9.194;2022-10-16T07:26:54;17.80;72.80
3067;DHT22;1544;48.834;9.194;2022-10-16T07:29:29;17.80;71.80
3067;DHT22;1544;48.834;9.194;2022-10-16T07:32:05;17.80;71.50
3067;DHT22;1544;48.834;9.194;2022-10-16T07:34:40;17.80;71.00
3067;DHT22;1544;48.834;9.194;2022-10-16T07:37:14;17.80;71.00
3067;DHT22;1544;48.834;9.194;2022-10-16T07:39:50;17.80;70.70
3067;DHT22;1544;48.834;9.194;2022-10-16T07:42:24;17.70;70.40
3067;DHT22;1544;48.834;9.194;2022-10-16T07:44:59;17.70;70.60
3067;DHT22;1544;48.834;9.194;2022-10-16T07:47:34;17.70;70.70
3067;DHT22;1544;48.834;9.194;2022-10-16T07:50:09;17.80;70.60
3067;DHT22;1544;48.834;9.194;2022-10-16T07:52:44;17.80;70.50
3067;DHT22;1544;48.834;9.194;2022-10-16T07:55:19;17.90;70.70
3067;DHT22;1544;48.834;9.194;2022-10-16T07:57:55;18.00;70.70
3067;DHT22;1544;48.834;9.194;2022-10-16T08:00:30;18.00;70.60
3067;DHT22;1544;48.834;9.194;2022-10-16T08:03:06;18.20;70.20
3067;DHT22;1544;48.834;9.194;2022-10-16T08:05:41;18.30;69.70
3067;DHT22;1544;48.834;9.194;2022-10-16T08:08:17;18.50;69.10
3067;DHT22;1544;48.834;9.194;2022-10-16T08:10:53;18.60;68.60
3067;DHT22;1544;48.834;9.194;2022-10-16T08:13:28;18.70;67.50
3067;DHT22;1544;48.834;9.194;2022-10-16T08:16:04;18.90;65.60
3067;DHT22;1544;48.834;9.194;2022-10-16T08:18:43;19.00;64.60
3067;DHT22;1544;48.834;9.194;2022-10-16T08:21:20;19.10;63.60
3067;DHT22;1544;48.834;9.194;2022-10-16T08:23:57;19.30;62.50
3067;DHT22;1544;48.834;9.194;2022-10-16T08:26:33;19.40;61.20
3067;DHT22;1544;48.834;9.194;2022-10-16T08:29:08;19.50;60.40
3067;DHT22;1544;48.834;9.194;2022-10-16T08:31:43;19.60;60.00
3067;DHT22;1544;48.834;9.194;2022-10-16T08:34:18;19.80;59.20
3067;DHT22;1544;48.834;9.194;2022-10-16T08:36:53;19.90;58.20
3067;DHT22;1544;48.834;9.194;2022-10-16T08:39:29;20.10;57.00
3067;DHT22;1544;48.834;9.194;2022-10-16T08:45:21;20.30;54.80
3067;DHT22;1544;48.834;9.194;2022-10-16T08:48:08;20.40;54.30
3067;DHT22;1544;48.834;9.194;2022-10-16T08:51:02;20.50;53.80
3067;DHT22;1544;48.834;9.194;2022-10-16T08:53:45;20.60;52.80
3067;DHT22;1544;48.834;9.194;2022-10-16T08:56:25;20.70;51.30
3067;DHT22;1544;48.834;9.194;2022-10-16T08:59:00;20.90;51.00
3067;DHT22;1544;48.834;9.194;2022-10-16T09:01:43;21.00;50.50
3067;DHT22;1544;48.834;9.194;2022-10-16T09:10:37;21.10;48.50
3067;DHT22;1544;48.834;9.194;2022-10-16T09:13:29;21.10;48.20
3067;DHT22;1544;48.834;9.194;2022-10-16T09:16:35;21.10;48.30
3067;DHT22;1544;48.834;9.194;2022-10-16T09:19:23;21.20;48.50
3067;DHT22;1544;48.834;9.194;2022-10-16T09:22:12;21.10;48.30
3067;DHT22;1544;48.834;9.194;2022-10-16T09:24:50;21.10;48.40
3067;DHT22;1544;48.834;9.194;2022-10-16T09:27:26;21.00;48.20
3067;DHT22;1544;48.834;9.194;2022-10-16T09:30:16;21.00;48.40
3067;DHT22;1544;48.834;9.194;2022-10-16T09:32:53;20.90;48.70
3067;DHT22;1544;48.834;9.194;2022-10-16T09:35:39;20.80;48.80
3067;DHT22;1544;48.834;9.194;2022-10-16T09:38:37;20.80;48.90
3067;DHT22;1544;48.834;9.194;2022-10-16T09:41:22;20.70;49.00
3067;DHT22;1544;48.834;9.194;2022-10-16T09:44:01;20.70;49.20
3067;DHT22;1544;48.834;9.194;2022-10-16T09:46:38;20.70;49.80
3067;DHT22;1544;48.834;9.194;2022-10-16T09:49:26;20.70;50.00
3067;DHT22;1544;48.834;9.194;2022-10-16T09:52:13;20.80;50.00
3067;DHT22;1544;48.834;9.194;2022-10-16T09:54:57;20.80;49.90
3067;DHT22;1544;48.834;9.194;2022-10-16T09:57:51;20.90;49.90
3067;DHT22;1544;48.834;9.194;2022-10-16T10:00:28;21.00;50.00
3067;DHT22;1544;48.834;9.194;2022-10-16T10:03:10;21.10;49.90
3067;DHT22;1544;48.834;9.194;2022-10-16T10:05:48;21.30;49.70
3067;DHT22;1544;48.834;9.194;2022-10-16T10:08:23;21.50;49.70
3067;DHT22;1544;48.834;9.194;2022-10-16T10:10:58;21.60;49.20
3067;DHT22;1544;48.834;9.194;2022-10-16T10:13:36;21.70;48.90
3067;DHT22;1544;48.834;9.194;2022-10-16T10:16:11;21.80;48.50
3067;DHT22;1544;48.834;9.194;2022-10-16T10:18:46;21.90;48.10
3067;DHT22;1544;48.834;9.194;2022-10-16T10:21:21;22.00;47.60
3067;DHT22;1544;48.834;9.194;2022-10-16T10:23:57;22.10;47.20
3067;DHT22;1544;48.834;9.194;2022-10-16T10:26:32;22.30;47.00
3067;DHT22;1544;48.834;9.194;2022-10-16T10:32:06;22.70;45.70
3067;DHT22;1544;48.834;9.194;2022-10-16T10:38:23;23.40;44.70
3067;DHT22;1544;48.834;9.194;2022-10-16T10:51:04;24.40;42.10
3067;DHT22;1544;48.834;9.194;2022-10-16T10:59:46;25.10;40.40
3067;DHT22;1544;48.834;9.194;2022-10-16T11:12:02;25.70;39.50
3067;DHT22;1544;48.834;9.194;2022-10-16T11:15:14;25.70;39.80
3067;DHT22;1544;48.834;9.194;2022-10-16T11:17:55;25.80;39.30
3067;DHT22;1544;48.834;9.194;2022-10-16T11:20:51;25.70;38.90
3067;DHT22;1544;48.834;9.194;2022-10-16T11:26:33;25.70;38.10
3067;DHT22;1544;48.834;9.194;2022-10-16T11:29:26;25.80;36.80
3067;DHT22;1544;48.834;9.194;2022-10-16T11:32:10;25.90;36.40
3067;DHT22;1544;48.834;9.194;2022-10-16T11:35:06;25.90;35.80
3067;DHT22;1544;48.834;9.194;2022-10-16T11:37:49;25.90;35.50
3067;DHT22;1544;48.834;9.194;2022-10-16T11:40:29;25.90;35.70
3067;DHT22;1544;48.834;9.194;2022-10-16T11:43:20;26.00;36.50
3067;DHT22;1544;48.834;9.194;2022-10-16T11:46:08;26.20;36.50
3067;DHT22;1544;48.834;9.194;2022-10-16T11:55:21;26.90;37.30
3067;DHT22;1544;48.834;9.194;2022-10-16T12:01:01;27.50;39.00
3067;DHT22;1544;48.834;9.194;2022-10-16T12:10:18;28.50;38.70
3067;DHT22;1544;48.834;9.194;2022-10-16T12:13:01;28.70;33.90
3067;DHT22;1544;48.834;9.194;2022-10-16T12:15:36;28.90;35.10
3067;DHT22;1544;48.834;9.194;2022-10-16T12:18:32;29.10;33.00
3067;DHT22;1544;48.834;9.194;2022-10-16T12:21:07;29.30;35.90
3067;DHT22;1544;48.834;9.194;2022-10-16T12:23:54;29.50;35.10
3067;DHT22;1544;48.834;9.194;2022-10-16T12:26:38;29.60;33.50
3067;DHT22;1544;48.834;9.194;2022-10-16T12:35:23;29.50;34.60
3067;DHT22;1544;48.834;9.194;2022-10-16T12:41:05;29.60;35.80
3067;DHT22;1544;48.834;9.194;2022-10-16T12:43:47;29.70;35.50
3067;DHT22;1544;48.834;9.194;2022-10-16T12:51:46;29.90;35.10
3067;DHT22;1544;48.834;9.194;2022-10-16T12:54:29;30.00;35.80
3067;DHT22;1544;48.834;9.194;2022-10-16T13:00:32;30.50;34.90
3067;DHT22;1544;48.834;9.194;2022-10-16T13:27:54;31.70;33.30
3067;DHT22;1544;48.834;9.194;2022-10-16T13:30:38;31.70;32.90
3067;DHT22;1544;48.834;9.194;2022-10-16T13:33:19;31.60;32.70
3067;DHT22;1544;48.834;9.194;2022-10-16T13:35:58;31.40;32.40
3067;DHT22;1544;48.834;9.194;2022-10-16T13:38:35;31.20;32.50
3067;DHT22;1544;48.834;9.194;2022-10-16T13:41:16;31.00;33.40
3067;DHT22;1544;48.834;9.194;2022-10-16T13:43:54;30.80;33.00
3067;DHT22;1544;48.834;9.194;2022-10-16T13:46:31;30.60;33.80
3067;DHT22;1544;48.834;9.194;2022-10-16T13:49:15;30.50;34.00
3067;DHT22;1544;48.834;9.194;2022-10-16T13:51:59;30.20;33.90
3067;DHT22;1544;48.834;9.194;2022-10-16T13:54:34;30.00;34.70
3067;DHT22;1544;48.834;9.194;2022-10-16T13:57:15;29.90;34.20
3067;DHT22;1544;48.834;9.194;2022-10-16T14:00:01;29.90;34.80
3067;DHT22;1544;48.834;9.194;2022-10-16T14:02:39;29.80;34.40
3067;DHT22;1544;48.834;9.194;2022-10-16T14:05:15;29.80;33.90
3067;DHT22;1544;48.834;9.194;2022-10-16T14:07:51;29.60;33.80
3067;DHT22;1544;48.834;9.194;2022-10-16T14:10:31;29.50;34.50
3067;DHT22;1544;48.834;9.194;2022-10-16T14:13:13;29.30;35.00
3067;DHT22;1544;48.834;9.194;2022-10-16T14:15:52;29.00;34.20
3067;DHT22;1544;48.834;9.194;2022-10-16T14:18:29;28.80;34.70
3067;DHT22;1544;48.834;9.194;2022-10-16T14:21:13;28.70;34.60
3067;DHT22;1544;48.834;9.194;2022-10-16T14:23:49;28.50;36.00
3067;DHT22;1544;48.834;9.194;2022-10-16T14:26:27;28.50;36.20
3067;DHT22;1544;48.834;9.194;2022-10-16T14:29:13;28.40;36.40
3067;DHT22;1544;48.834;9.194;2022-10-16T14:32:04;28.40;36.20
3067;DHT22;1544;48.834;9.194;2022-10-16T14:34:39;28.30;36.30
3067;DHT22;1544;48.834;9.194;2022-10-16T14:37:24;28.20;36.60
3067;DHT22;1544;48.834;9.194;2022-10-16T14:40:02;28.10;36.70
3067;DHT22;1544;48.834;9.194;2022-10-16T14:42:38;28.10;36.90
3067;DHT22;1544;48.834;9.194;2022-10-16T14:45:20;28.00;36.30
3067;DHT22;1544;48.834;9.194;2022-10-16T14:48:16;28.00;35.80
3067;DHT22;1544;48.834;9.194;2022-10-16T14:50:53;27.80;35.60
3067;DHT22;1544;48.834;9.194;2022-10-16T14:53:28;27.80;36.50
3067;DHT22;1544;48.834;9.194;2022-10-16T14:56:08;27.80;37.10
3067;DHT22;1544;48.834;9.194;2022-10-16T14:58:44;27.80;36.40
3067;DHT22;1544;48.834;9.194;2022-10-16T15:01:19;27.80;36.40
3067;DHT22;1544;48.834;9.194;2022-10-16T15:03:54;27.70;36.30
3067;DHT22;1544;48.834;9.194;2022-10-16T15:06:30;27.60;36.70
3067;DHT22;1544;48.834;9.194;2022-10-16T15:09:04;27.60;36.50
3067;DHT22;1544;48.834;9.194;2022-10-16T15:11:40;27.60;36.00
3067;DHT22;1544;48.834;9.194;2022-10-16T15:14:16;27.60;36.00
3067;DHT22;1544;48.834;9.194;2022-10-16T15:16:51;27.60;36.30
3067;DHT22;1544;48.834;9.194;2022-10-16T15:19:26;27.60;36.40
3067;DHT22;1544;48.834;9.194;2022-10-16T15:22:01;27.70;36.20
3067;DHT22;1544;48.834;9.194;2022-10-16T15:24:36;27.70;37.00
3067;DHT22;1544;48.834;9.194;2022-10-16T15:27:11;27.70;36.40
3067;DHT22;1544;48.834;9.194;2022-10-16T15:29:46;27.60;36.20
3067;DHT22;1544;48.834;9.194;2022-10-16T15:32:20;27.50;36.20
3067;DHT22;1544;48.834;9.194;2022-10-16T15:34:55;27.30;36.40
3067;DHT22;1544;48.834;9.194;2022-10-16T15:37:30;27.20;36.40
3067;DHT22;1544;48.834;9.194;2022-10-16T15:40:06;27.10;36.30
3067;DHT22;1544;48.834;9.194;2022-10-16T15:42:41;27.00;36.50
3067;DHT22;1544;48.834;9.194;2022-10-16T15:45:16;26.90;36.70
3067;DHT22;1544;48.834;9.194;2022-10-16T15:47:53;26.70;36.70
3067;DHT22;1544;48.834;9.194;2022-10-16T15:50:31;26.60;37.00
3067;DHT22;1544;48.834;9.194;2022-10-16T15:53:06;26.50;37.30
3067;DHT22;1544;48.834;9.194;2022-10-16T15:55:41;26.40;37.40
3067;DHT22;1544;48.834;9.194;2022-10-16T15:58:17;26.20;38.00
3067;DHT22;1544;48.834;9.194;2022-10-16T16:00:59;26.10;37.70
3067;DHT22;1544;48.834;9.194;2022-10-16T16:03:38;26.00;37.70
3067;DHT22;1544;48.834;9.194;2022-10-16T16:06:16;25.90;37.80
3067;DHT22;1544;48.834;9.194;2022-10-16T16:08:51;25.80;38.40
3067;DHT22;1544;48.834;9.194;2022-10-16T16:11:26;25.60;38.20
3067;DHT22;1544;48.834;9.194;2022-10-16T16:14:01;25.50;38.20
3067;DHT22;1544;48.834;9.194;2022-10-16T16:16:36;25.40;38.30
3067;DHT22;1544;48.834;9.194;2022-10-16T16:19:12;25.20;38.70
3067;DHT22;1544;48.834;9.194;2022-10-16T16:21:48;25.10;39.00
3067;DHT22;1544;48.834;9.194;2022-10-16T16:24:24;24.90;39.40
3067;DHT22;1544;48.834;9.194;2022-10-16T16:26:59;24.70;39.30
3067;DHT22;1544;48.834;9.194;2022-10-16T16:29:34;24.60;39.30
3067;DHT22;1544;48.834;9.194;2022-10-16T16:32:09;24.30;39.40
3067;DHT22;1544;48.834;9.194;2022-10-16T16:34:44;24.20;39.70
3067;DHT22;1544;48.834;9.194;2022-10-16T16:37:19;24.10;40.30
3067;DHT22;1544;48.834;9.194;2022-10-16T16:39:54;23.90;40.50
3067;DHT22;1544;48.834;9.194;2022-10-16T16:42:30;23.80;40.90
3067;DHT22;1544;48.834;9.194;2022-10-16T16:45:06;23.60;41.50
3067;DHT22;1544;48.834;9.194;2022-10-16T16:47:42;23.50;41.60
3067;DHT22;1544;48.834;9.194;2022-10-16T16:50:17;23.30;42.00
3067;DHT22;1544;48.834;9.194;2022-10-16T16:52:51;23.30;42.40
3067;DHT22;1544;48.834;9.194;2022-10-16T16:55:26;23.10;42.10
3067;DHT22;1544;48.834;9.194;2022-10-16T16:58:01;23.00;42.60
3067;DHT22;1544;48.834;9.194;2022-10-16T17:00:45;22.90;42.60
3067;DHT22;1544;48.834;9.194;2022-10-16T17:03:33;22.80;42.70
3067;DHT22;1544;48.834;9.194;2022-10-16T17:06:10;22.70;42.90
3067;DHT22;1544;48.834;9.194;2022-10-16T17:08:45;22.50;43.80
3067;DHT22;1544;48.834;9.194;2022-10-16T17:11:23;22.40;43.70
3067;DHT22;1544;48.834;9.194;2022-10-16T17:14:00;22.30;44.40
3067;DHT22;1544;48.834;9.194;2022-10-16T17:16:36;22.20;44.70
3067;DHT22;1544;48.834;9.194;2022-10-16T17:19:15;22.10;45.00
3067;DHT22;1544;48.834;9.194;2022-10-16T17:21:53;22.00;45.30
3067;DHT22;1544;48.834;9.194;2022-10-16T17:24:28;21.90;46.00
3067;DHT22;1544;48.834;9.194;2022-10-16T17:27:03;21.80;46.40
3067;DHT22;1544;48.834;9.194;2022-10-16T17:29:39;21.70;46.50
3067;DHT22;1544;48.834;9.194;2022-10-16T17:32:14;21.60;46.90
3067;DHT22;1544;48.834;9.194;2022-10-16T17:34:49;21.40;47.50
3067;DHT22;1544;48.834;9.194;2022-10-16T17:37:24;21.30;48.00
3067;DHT22;1544;48.834;9.194;2022-10-16T17:39:59;21.20;48.60
3067;DHT22;1544;48.834;9.194;2022-10-16T17:42:34;21.10;48.80
3067;DHT22;1544;48.834;9.194;2022-10-16T17:45:09;21.00;49.20
3067;DHT22;1544;48.834;9.194;2022-10-16T17:47:44;20.90;49.40
3067;DHT22;1544;48.834;9.194;2022-10-16T17:50:19;20.80;50.00
3067;DHT22;1544;48.834;9.194;2022-10-16T17:52:54;20.80;50.60
3067;DHT22;1544;48.834;9.194;2022-10-16T17:55:29;20.70;51.10
3067;DHT22;1544;48.834;9.194;2022-10-16T17:58:04;20.60;51.70
3067;DHT22;1544;48.834;9.194;2022-10-16T18:00:39;20.60;51.70
3067;DHT22;1544;48.834;9.194;2022-10-16T18:03:14;20.40;51.90
3067;DHT22;1544;48.834;9.194;2022-10-16T18:05:49;20.40;52.10
3067;DHT22;1544;48.834;9.194;2022-10-16T18:08:23;20.30;52.30
3067;DHT22;1544;48.834;9.194;2022-10-16T18:11:03;20.20;52.60
3067;DHT22;1544;48.834;9.194;2022-10-16T18:13:38;20.20;52.80
3067;DHT22;1544;48.834;9.194;2022-10-16T18:16:14;20.10;52.90
3067;DHT22;1544;48.834;9.194;2022-10-16T18:18:49;20.00;53.20
3067;DHT22;1544;48.834;9.194;2022-10-16T18:21:25;19.90;53.90
3067;DHT22;1544;48.834;9.194;2022-10-16T18:24:01;19.80;54.60
3067;DHT22;1544;48.834;9.194;2022-10-16T18:26:37;19.80;54.70
3067;DHT22;1544;48.834;9.194;2022-10-16T18:29:13;19.80;55.00
3067;DHT22;1544;48.834;9.194;2022-10-16T18:31:48;19.70;55.30
3067;DHT22;1544;48.834;9.194;2022-10-16T18:34:23;19.60;55.50
3067;DHT22;1544;48.834;9.194;2022-10-16T18:37:00;19.60;56.00
3067;DHT22;1544;48.834;9.194;2022-10-16T18:39:35;19.50;56.50
3067;DHT22;1544;48.834;9.194;2022-10-16T18:42:10;19.50;56.90
3067;DHT22;1544;48.834;9.194;2022-10-16T18:44:45;19.50;57.40
3067;DHT22;1544;48.834;9.194;2022-10-16T18:47:27;19.50;57.80
3067;DHT22;1544;48.834;9.194;2022-10-16T18:50:03;19.40;58.00
3067;DHT22;1544;48.834;9.194;2022-10-16T18:52:48;19.30;58.10
3067;DHT22;1544;48.834;9.194;2022-10-16T18:55:23;19.30;58.30
3067;DHT22;1544;48.834;9.194;2022-10-16T18:58:04;19.30;58.60
3067;DHT22;1544;48.834;9.194;2022-10-16T19:00:39;19.30;58.90
3067;DHT22;1544;48.834;9.194;2022-10-16T19:03:14;19.20;59.20
3067;DHT22;1544;48.834;9.194;2022-10-16T19:05:49;19.20;59.50
3067;DHT22;1544;48.834;9.194;2022-10-16T19:08:24;19.10;59.70